Terminal Aerodrome Forecast
Issued by NWS

Current Version | Previous Version | Text Only | Print | Product List | Glossary On
Versions: 1 2 3 4 5 6 7 8 9 10 11 12 13 14 15 16 17 18
032
FTUS44 KLZK 241123 CCA
TAFHRO
TAF COR
KHRO 241123Z 2412/2512 VRB02KT 5SM BR SCT002 SCT080
      TEMPO 2412/2414 BKN001
     FM241400 15005KT P6SM VCTS SCT025CB BKN100
     FM250000 VRB03KT P6SM OVC250
      TEMPO 2508/2512 4SM BR SCT025=

USA.gov is the U.S. government's official web portal to all federal, state and local government web resources and services.